Time;durP1;ratioP1;P1;durP2;ratioP2;P2;SDS_P1;SDS_P2;PMS_P1;PMS_P2;Temp;Humidity;BMP_temperature;BMP_pressure;BME280_temperature;BME280_humidity;BME280_pressure;Samples;Min_cycle;Max_cycle;Signal;HPM_P1;HPM_P2
2023/05/23 19:27:24;;;;;;;;;;;;;;;;;;5117803;27;2209;-60
2023/05/23 19:29:50;;;;;;;;;;;;;;;;;;5100825;28;2335;-56
2023/05/23 19:34:51;;;;;;;;;;;;;;;;;;5028515;22;2924;-64
2023/05/23 19:37:16;;;;;;;;;;;;;;;;;;5038200;28;2507;-64
2023/05/23 19:39:44;;;;;;;;;;;;;;;;;;5036876;28;2911;-64
2023/05/23 19:42:10;;;;;;;;;;;;;;;;;;5032572;28;1933;-60
2023/05/23 19:44:36;;;;;;;;;;;;;;;;;;5056299;28;2329;-67
2023/05/23 19:47:01;;;;;;;;;;;;;;;;;;5038481;28;2316;-65
2023/05/23 19:49:26;;;;;;;;;;;;;;;;;;5033939;28;7384;-64
2023/05/23 19:51:51;;;;;;;;;;;;;;;;;;5033580;28;5564;-62
2023/05/23 19:54:17;;;;;;;;;;;;;;;;;;5024789;28;5491;-63
2023/05/23 19:56:42;;;;;;;;;;;;;;;;;;5034194;28;5445;-64
2023/05/23 19:59:07;;;;;;;;;;;;;;;;;;5040016;28;1954;-63
2023/05/23 20:01:33;;;;;;;;;;;;;;;;;;5044809;28;1852;-63
2023/05/23 20:03:58;;;;;;;;;;;;;;;;;;5045791;28;1354;-62
2023/05/23 20:06:23;;;;;;;;;;;;;;;;;;5039195;28;3490;-66
2023/05/23 20:08:49;;;;;;;;;;;;;;;;;;5024177;28;2566;-64
2023/05/23 20:11:14;;;;;;;;;;;;;;;;;;5048553;28;2382;-61
2023/05/23 20:13:40;;;;;;;;;;;;;;;;;;5044622;28;1757;-63
2023/05/23 20:16:06;;;;;;;;;;;;;;;;;;5036589;28;2094;-57
2023/05/23 20:18:32;;;;;;;;;;;;;;;;;;5044293;28;1479;-55
2023/05/23 20:20:57;;;;;;;;;;;;;;;;;;5043519;28;2069;-55
2023/05/23 20:23:22;;;;;;;;;;;;;;;;;;5042550;28;2316;-54
2023/05/23 20:25:48;;;;;;;;;;;;;;;;;;5041087;28;1951;-56
2023/05/23 20:28:13;;;;;;;;;;;;;;;;;;5042081;28;1312;-52
2023/05/23 20:30:38;;;;;;;;;;;;;;;;;;5045055;28;1437;-56
2023/05/23 20:33:04;;;;;;;;;;;;;;;;;;5039485;28;2101;-63
2023/05/23 20:35:29;;;;;;;;;;;;;;;;;;5042038;28;1923;-63
2023/05/23 20:37:55;;;;;;;;;;;;;;;;;;5035974;28;1501;-62
2023/05/23 20:40:21;;;;;;;;;;;;;;;;;;5030800;28;1326;-61
2023/05/23 20:42:46;;;;;;;;;;;;;;;;;;5028276;28;2280;-62
2023/05/23 20:45:12;;;;;;;;;;;;;;;;;;5027689;28;2059;-61
2023/05/23 20:47:40;;;;;;;;;;;;;;;;;;5030106;28;1909;-62
2023/05/23 20:50:06;;;;;;;;;;;;;;;;;;5024919;28;1319;-61
2023/05/23 20:52:31;;;;;;;;;;;;;;;;;;5027873;28;2029;-62
2023/05/23 20:54:57;;;;;;;;;;;;;;;;;;5029695;28;1967;-60
2023/05/23 20:57:22;;;;;;;;;;;;;;;;;;5027165;28;1870;-64
2023/05/23 20:59:48;;;;;;;;;;;;;;;;;;5029592;28;4152;-63
2023/05/23 21:02:13;;;;;;;;;;;;;;;;;;5034831;28;1334;-62
2023/05/23 21:04:38;;;;;;;;;;;;;;;;;;5023276;28;2090;-61
2023/05/23 21:07:04;;;;;;;;;;;;;;;;;;5030530;28;1979;-68
2023/05/23 21:09:29;;;;;;;;;;;;;;;;;;5028631;28;2668;-67
2023/05/23 21:11:56;;;;;;;;;;;;;;;;;;5024772;28;2247;-66
2023/05/23 21:14:21;;;;;;;;;;;;;;;;;;5027676;28;1903;-66
2023/05/23 21:16:46;;;;;;;;;;;;;;;;;;5027029;28;2022;-60
2023/05/23 21:19:12;;;;;;;;;;;;;;;;;;5028022;28;2042;-62
2023/05/23 21:21:37;;;;;;;;;;;;;;;;;;4999828;28;8607;-62
2023/05/23 21:24:03;;;;;;;;;;;;;;;;;;4983724;28;7279;-62
2023/05/23 21:26:29;;;;;;;;;;;;;;;;;;4989155;28;5542;-61
2023/05/23 21:28:54;;;;;;;;;;;;;;;;;;4987041;28;1582;-62
2023/05/23 21:31:20;;;;;;;;;;;;;;;;;;4982518;28;7808;-62
2023/05/23 21:33:45;;;;;;;;;;;;;;;;;;4984351;28;3342;-62
2023/05/23 21:36:10;;;;;;;;;;;;;;;;;;4987702;28;3348;-61
2023/05/23 21:38:36;;;;;;;;;;;;;;;;;;4983922;28;5139;-57
2023/05/23 21:41:01;;;;;;;;;;;;;;;;;;4986840;28;3268;-60
2023/05/23 21:43:27;;;;;;;;;;;;;;;;;;4981464;28;1649;-60
2023/05/23 21:45:52;;;;;;;;;;;;;;;;;;4988276;28;1918;-60
2023/05/23 21:48:17;;;;;;;;;;;;;;;;;;4988163;28;1559;-60
2023/05/23 21:50:42;;;;;;;;;;;;;;;;;;4987599;28;1455;-60
2023/05/23 21:53:07;;;;;;;;;;;;;;;;;;4983270;28;1835;-60
2023/05/23 21:55:33;;;;;;;;;;;;;;;;;;4987525;28;5435;-58
2023/05/23 21:57:58;;;;;;;;;;;;;;;;;;4988805;28;1623;-60
2023/05/23 22:00:25;;;;;;;;;;;;;;;;;;4989241;28;1715;-60
2023/05/23 22:02:51;;;;;;;;;;;;;;;;;;4989433;28;1571;-61
2023/05/23 22:05:16;;;;;;;;;;;;;;;;;;4988003;28;1918;-60
2023/05/23 22:07:42;;;;;;;;;;;;;;;;;;4985942;28;1670;-60
2023/05/23 22:10:07;;;;;;;;;;;;;;;;;;4988044;28;1425;-61
2023/05/23 22:12:32;;;;;;;;;;;;;;;;;;4985536;28;1755;-60
2023/05/23 22:14:58;;;;;;;;;;;;;;;;;;4988118;28;1601;-61
2023/05/23 22:17:25;;;;;;;;;;;;;;;;;;4985882;28;1320;-58
2023/05/23 22:19:50;;;;;;;;;;;;;;;;;;4981049;28;1362;-59
2023/05/23 22:22:16;;;;;;;;;;;;;;;;;;4985046;28;1624;-58
2023/05/23 22:24:41;;;;;;;;;;;;;;;;;;4984001;28;1558;-58
2023/05/23 22:27:06;;;;;;;;;;;;;;;;;;4986337;28;1964;-58
2023/05/23 22:29:32;;;;;;;;;;;;;;;;;;4986453;28;6339;-58
2023/05/23 22:31:57;;;;;;;;;;;;;;;;;;4986428;28;1680;-60
2023/05/23 22:34:22;;;;;;;;;;;;;;;;;;4988267;28;1729;-60
2023/05/23 22:36:47;;;;;;;;;;;;;;;;;;4983724;28;1668;-60
2023/05/23 22:39:13;;;;;;;;;;;;;;;;;;4984729;28;1489;-60
2023/05/23 22:41:38;;;;;;;;;;;;;;;;;;4988427;28;1364;-60
2023/05/23 22:44:03;;;;;;;;;;;;;;;;;;4988754;28;1603;-60
2023/05/23 22:46:28;;;;;;;;;;;;;;;;;;4979988;28;1981;-60
2023/05/23 22:48:54;;;;;;;;;;;;;;;;;;4987110;28;1776;-60
2023/05/23 22:51:19;;;;;;;;;;;;;;;;;;4987014;28;1599;-59
2023/05/23 22:53:45;;;;;;;;;;;;;;;;;;4983021;28;1628;-59
2023/05/23 22:56:10;;;;;;;;;;;;;;;;;;4986745;28;1845;-60
2023/05/23 22:58:35;;;;;;;;;;;;;;;;;;4986981;28;1494;-60
2023/05/23 23:01:01;;;;;;;;;;;;;;;;;;4985893;28;1314;-61
2023/05/23 23:03:26;;;;;;;;;;;;;;;;;;4987737;28;1842;-58
2023/05/23 23:05:51;;;;;;;;;;;;;;;;;;4988002;28;2147;-59
2023/05/23 23:08:18;;;;;;;;;;;;;;;;;;4986736;28;2010;-59
2023/05/23 23:10:43;;;;;;;;;;;;;;;;;;4987801;28;1473;-59
2023/05/23 23:13:08;;;;;;;;;;;;;;;;;;4987799;28;1635;-59
2023/05/23 23:15:35;;;;;;;;;;;;;;;;;;4988109;28;1705;-59
2023/05/23 23:18:00;;;;;;;;;;;;;;;;;;4987536;28;1861;-59
2023/05/23 23:20:25;;;;;;;;;;;;;;;;;;4981609;28;1716;-58
2023/05/23 23:22:51;;;;;;;;;;;;;;;;;;4986460;28;1353;-58
2023/05/23 23:25:17;;;;;;;;;;;;;;;;;;4987173;28;1920;-59
2023/05/23 23:27:42;;;;;;;;;;;;;;;;;;4986283;28;1477;-60
2023/05/23 23:30:08;;;;;;;;;;;;;;;;;;4985355;28;5004;-59
2023/05/23 23:32:33;;;;;;;;;;;;;;;;;;4983266;28;1724;-60
2023/05/23 23:34:58;;;;;;;;;;;;;;;;;;4980048;28;1743;-59
2023/05/23 23:37:24;;;;;;;;;;;;;;;;;;4986592;28;1701;-60
2023/05/23 23:39:49;;;;;;;;;;;;;;;;;;4967618;28;1547;-59
2023/05/23 23:42:14;;;;;;;;;;;;;;;;;;4987271;28;1619;-60
2023/05/23 23:44:40;;;;;;;;;;;;;;;;;;4980578;28;1641;-60
2023/05/23 23:47:05;;;;;;;;;;;;;;;;;;4983021;28;1922;-59
2023/05/23 23:49:30;;;;;;;;;;;;;;;;;;4979976;28;2006;-60
2023/05/23 23:51:55;;;;;;;;;;;;;;;;;;4981811;28;1854;-59
2023/05/23 23:54:21;;;;;;;;;;;;;;;;;;4987430;28;1525;-60
2023/05/23 23:56:46;;;;;;;;;;;;;;;;;;4987589;28;1704;-60
2023/05/23 23:59:11;;;;;;;;;;;;;;;;;;4985991;28;1693;-59
